Time;durP1;ratioP1;P1;durP2;ratioP2;P2;SDS_P1;SDS_P2;PMS_P1;PMS_P2;Temp;Humidity;BMP_temperature;BMP_pressure;BME280_temperature;BME280_humidity;BME280_pressure;Samples;Min_cycle;Max_cycle;Signal;HPM_P1;HPM_P2
2022/08/26 00:00:45;;;;;;;7.32;5.70;;;17.80;96.30;;;;;;5078826;28;20029;-64
2022/08/26 00:03:11;;;;;;;7.95;5.15;;;17.70;96.40;;;;;;5078265;28;20402;-65
2022/08/26 00:05:38;;;;;;;7.97;5.40;;;17.60;96.60;;;;;;5076396;28;20040;-65
2022/08/26 00:08:04;;;;;;;8.15;6.05;;;17.40;96.90;;;;;;5077730;28;20028;-65
2022/08/26 00:10:30;;;;;;;8.13;5.40;;;17.20;96.90;;;;;;5076006;28;20413;-64
2022/08/26 00:12:56;;;;;;;11.02;5.03;;;17.10;97.00;;;;;;5077592;28;20037;-64
2022/08/26 00:15:23;;;;;;;7.50;5.55;;;17.10;97.00;;;;;;5076317;28;20028;-65
2022/08/26 00:17:51;;;;;;;6.68;5.38;;;17.10;97.10;;;;;;5075901;28;20028;-64
2022/08/26 00:20:20;;;;;;;8.25;5.75;;;17.10;97.20;;;;;;5077267;28;20049;-64
2022/08/26 00:22:46;;;;;;;7.32;4.95;;;17.20;97.20;;;;;;5078269;28;20075;-65
2022/08/26 00:25:12;;;;;;;7.50;4.90;;;17.30;97.20;;;;;;5075772;28;20064;-65
2022/08/26 00:27:38;;;;;;;6.40;4.93;;;17.50;96.90;;;;;;5094655;28;20020;-65
2022/08/26 00:30:07;;;;;;;7.38;4.72;;;17.70;96.60;;;;;;5077861;28;20035;-64
2022/08/26 00:32:32;;;;;;;9.65;5.40;;;17.90;96.40;;;;;;5077250;28;20028;-64
2022/08/26 00:34:58;;;;;;;7.50;4.93;;;17.90;96.20;;;;;;5076530;28;20051;-65
2022/08/26 00:37:24;;;;;;;6.57;4.40;;;17.90;96.10;;;;;;5078495;28;20040;-65
2022/08/26 00:39:51;;;;;;;6.53;4.50;;;18.00;95.80;;;;;;5075169;28;20397;-65
2022/08/26 00:42:17;;;;;;;7.28;5.03;;;18.10;95.50;;;;;;5077304;28;20028;-64
2022/08/26 00:44:43;;;;;;;7.63;4.90;;;18.30;95.10;;;;;;5076609;28;20033;-64
2022/08/26 00:47:21;;;;;;;7.97;4.60;;;18.30;95.20;;;;;;5080857;28;20401;-64
2022/08/26 00:49:50;;;;;;;6.95;4.72;;;18.30;95.10;;;;;;5081031;28;20024;-65
2022/08/26 00:52:18;;;;;;;7.15;4.85;;;18.20;95.30;;;;;;5079653;28;20325;-65
2022/08/26 00:54:58;;;;;;;14.40;5.60;;;18.00;95.70;;;;;;5077471;28;20084;-64
2022/08/26 00:57:24;;;;;;;7.30;4.90;;;17.80;96.20;;;;;;5093181;28;20032;-65
2022/08/26 00:59:55;;;;;;;6.35;4.85;;;17.70;96.50;;;;;;5077141;28;20032;-65
2022/08/26 01:02:21;;;;;;;6.25;4.60;;;17.60;96.70;;;;;;5082993;28;20031;-65
2022/08/26 01:04:56;;;;;;;8.38;5.28;;;17.60;96.70;;;;;;5079511;28;20047;-64
2022/08/26 01:07:28;;;;;;;7.43;5.50;;;17.50;96.70;;;;;;5082814;28;20031;-65
2022/08/26 01:09:55;;;;;;;7.05;4.95;;;17.40;97.00;;;;;;5078298;28;20070;-65
2022/08/26 01:12:26;;;;;;;8.10;5.38;;;17.50;96.80;;;;;;5078642;28;20100;-64
2022/08/26 01:14:52;;;;;;;6.40;4.68;;;17.60;96.70;;;;;;5079371;28;20500;-64
2022/08/26 01:17:18;;;;;;;6.50;5.18;;;17.70;96.50;;;;;;5086143;28;20032;-65
2022/08/26 01:19:49;;;;;;;7.43;5.13;;;17.70;96.40;;;;;;5078455;28;20044;-65
2022/08/26 01:22:50;;;;;;;6.53;5.00;;;17.70;96.50;;;;;;5089720;28;20103;-64
2022/08/26 01:25:18;;;;;;;8.80;5.00;;;17.40;96.70;;;;;;5072915;28;20051;-65
2022/08/26 01:27:45;;;;;;;8.23;5.20;;;17.20;97.00;;;;;;5077293;28;20075;-64
2022/08/26 01:30:11;;;;;;;8.93;5.05;;;17.10;97.20;;;;;;5077767;28;20036;-64
2022/08/26 01:32:38;;;;;;;7.10;5.13;;;17.20;97.20;;;;;;5076775;28;20028;-65
2022/08/26 01:35:05;;;;;;;7.68;5.43;;;17.20;97.20;;;;;;5084592;28;20023;-65
2022/08/26 01:37:36;;;;;;;7.47;5.32;;;17.40;97.10;;;;;;5091500;28;20024;-64
2022/08/26 01:40:05;;;;;;;8.05;5.53;;;17.40;97.20;;;;;;5080626;28;20046;-65
2022/08/26 01:42:31;;;;;;;8.73;4.70;;;17.40;97.10;;;;;;5083380;28;20099;-64
2022/08/26 01:45:02;;;;;;;8.20;5.32;;;17.40;97.00;;;;;;5088005;28;20166;-65
2022/08/26 01:47:33;;;;;;;7.28;5.15;;;17.50;96.90;;;;;;5081656;28;20359;-63
2022/08/26 01:50:03;;;;;;;6.03;4.40;;;17.60;96.70;;;;;;5067596;28;20044;-63
2022/08/26 01:52:32;;;;;;;7.35;4.93;;;17.60;96.60;;;;;;5072349;28;20020;-63
2022/08/26 01:54:58;;;;;;;7.95;4.90;;;17.60;96.70;;;;;;5080607;28;20033;-63
2022/08/26 01:57:25;;;;;;;6.95;4.90;;;17.40;96.80;;;;;;5081675;28;20040;-63
2022/08/26 01:59:53;;;;;;;6.45;5.10;;;17.30;97.00;;;;;;5076420;28;20074;-64
2022/08/26 02:02:19;;;;;;;8.80;5.28;;;17.10;97.10;;;;;;5073366;28;20028;-65
2022/08/26 02:04:52;;;;;;;7.13;4.75;;;17.00;97.20;;;;;;5076941;28;20102;-64
2022/08/26 02:07:20;;;;;;;8.38;5.10;;;16.90;97.30;;;;;;5074534;28;20029;-65
2022/08/26 02:09:49;;;;;;;8.60;5.22;;;16.90;97.30;;;;;;5075745;28;20025;-64
2022/08/26 02:12:17;;;;;;;8.07;5.47;;;16.90;97.50;;;;;;5074660;28;20043;-64
2022/08/26 02:14:48;;;;;;;7.82;5.32;;;17.00;97.40;;;;;;5080520;28;20409;-64
2022/08/26 02:17:17;;;;;;;7.93;5.60;;;17.00;97.30;;;;;;5068132;28;20374;-65
2022/08/26 02:19:46;;;;;;;6.93;5.18;;;17.10;97.40;;;;;;5077968;28;20063;-63
2022/08/26 02:22:16;;;;;;;7.30;5.07;;;17.10;97.40;;;;;;5076825;28;20385;-64
2022/08/26 02:24:55;;;;;;;7.88;5.65;;;17.20;97.30;;;;;;5084508;28;20472;-64
2022/08/26 02:27:25;;;;;;;8.90;5.70;;;17.20;97.30;;;;;;5071007;28;20044;-65
2022/08/26 02:29:56;;;;;;;10.07;5.00;;;17.30;97.20;;;;;;5078004;28;20069;-63
2022/08/26 02:32:22;;;;;;;6.88;4.80;;;17.20;97.20;;;;;;5075704;28;20134;-64
2022/08/26 02:34:48;;;;;;;9.80;5.10;;;17.20;97.20;;;;;;5076702;28;20030;-64
2022/08/26 02:37:14;;;;;;;6.10;4.53;;;17.20;97.30;;;;;;5083927;28;20028;-64
2022/08/26 02:39:41;;;;;;;6.50;4.53;;;17.20;97.20;;;;;;5088172;28;20035;-65
2022/08/26 02:42:07;;;;;;;6.95;4.90;;;17.30;97.20;;;;;;5094560;28;20093;-65
2022/08/26 02:44:33;;;;;;;7.18;5.25;;;17.20;97.20;;;;;;5083712;28;20025;-65
2022/08/26 02:46:59;;;;;;;14.18;5.50;;;17.10;97.30;;;;;;5079915;28;20047;-64
2022/08/26 02:49:26;;;;;;;8.55;5.50;;;17.10;97.30;;;;;;5092675;28;20024;-64
2022/08/26 02:51:52;;;;;;;7.97;5.22;;;17.10;97.40;;;;;;5079654;28;20031;-66
2022/08/26 02:54:23;;;;;;;7.25;5.40;;;17.10;97.40;;;;;;5075008;28;20028;-63
2022/08/26 02:56:50;;;;;;;6.63;5.22;;;17.00;97.40;;;;;;5082207;28;20070;-65
2022/08/26 02:59:16;;;;;;;7.90;5.63;;;16.80;97.40;;;;;;5086291;28;20032;-64
2022/08/26 03:01:43;;;;;;;8.32;5.35;;;16.60;97.40;;;;;;5075952;28;20028;-63
2022/08/26 03:04:11;;;;;;;10.02;6.43;;;16.40;97.30;;;;;;5084342;28;20336;-65
2022/08/26 03:06:36;;;;;;;7.95;5.85;;;16.20;97.00;;;;;;5084140;28;20035;-64
2022/08/26 03:09:03;;;;;;;8.48;5.85;;;16.10;96.90;;;;;;5075660;28;20107;-65
2022/08/26 03:11:30;;;;;;;8.38;5.15;;;16.40;97.20;;;;;;5084007;28;20146;-65
2022/08/26 03:13:56;;;;;;;7.47;5.50;;;16.50;97.50;;;;;;5080746;28;20047;-65
2022/08/26 03:16:22;;;;;;;10.35;5.88;;;16.50;97.40;;;;;;5091409;28;20074;-65
2022/08/26 03:18:47;;;;;;;7.47;5.70;;;16.50;97.30;;;;;;5082090;28;20029;-64
2022/08/26 03:21:17;;;;;;;8.13;5.50;;;16.50;97.40;;;;;;5075013;28;20444;-65
2022/08/26 03:23:43;;;;;;;9.25;5.68;;;16.50;97.40;;;;;;5073714;28;20063;-64
2022/08/26 03:26:11;;;;;;;8.60;5.72;;;16.50;97.40;;;;;;5081417;28;20317;-65
2022/08/26 03:30:38;;;;;;;10.18;5.70;;;16.50;97.40;;;;;;5077542;28;20029;-65
2022/08/26 03:31:23;;;;;;;8.48;5.60;;;16.50;97.40;;;;;;5085848;28;20028;-65
2022/08/26 03:33:49;;;;;;;8.30;5.22;;;16.50;97.50;;;;;;5083851;28;20028;-65
2022/08/26 03:36:15;;;;;;;7.97;5.70;;;16.50;97.50;;;;;;5093914;28;20036;-65
2022/08/26 03:38:41;;;;;;;7.38;5.20;;;16.50;97.40;;;;;;5080471;28;20039;-64
2022/08/26 03:41:08;;;;;;;7.97;5.10;;;16.50;97.60;;;;;;5081149;28;20035;-65
2022/08/26 03:43:37;;;;;;;7.68;4.95;;;16.60;97.70;;;;;;5078247;28;20032;-65
2022/08/26 03:46:07;;;;;;;7.28;5.32;;;16.60;97.60;;;;;;5081285;28;20028;-65
2022/08/26 03:48:32;;;;;;;6.82;5.53;;;16.60;97.60;;;;;;5090242;28;20047;-65
2022/08/26 03:50:59;;;;;;;8.65;5.72;;;16.60;97.60;;;;;;5079433;28;20417;-65
2022/08/26 03:53:25;;;;;;;9.07;5.45;;;16.60;97.60;;;;;;5078602;28;20032;-65
2022/08/26 03:55:51;;;;;;;8.77;5.13;;;16.50;97.50;;;;;;5092503;28;20436;-65
2022/08/26 03:58:16;;;;;;;7.38;5.38;;;16.40;97.40;;;;;;5097519;28;20036;-65
2022/08/26 04:00:42;;;;;;;9.75;5.82;;;16.20;97.30;;;;;;5081499;28;20028;-64
2022/08/26 04:03:09;;;;;;;8.38;5.75;;;16.00;96.80;;;;;;5076547;28;20028;-65
2022/08/26 04:05:35;;;;;;;6.93;5.25;;;16.00;96.80;;;;;;5078529;28;20059;-65
2022/08/26 04:08:01;;;;;;;8.43;5.55;;;16.00;96.80;;;;;;5092719;28;20062;-65
2022/08/26 04:10:27;;;;;;;9.50;5.63;;;16.10;96.80;;;;;;5096174;28;20134;-65
2022/08/26 04:12:52;;;;;;;8.15;5.22;;;16.10;97.10;;;;;;5083653;28;20047;-65
2022/08/26 04:15:20;;;;;;;7.80;5.88;;;16.20;97.40;;;;;;5097019;28;20077;-65
2022/08/26 04:17:49;;;;;;;7.90;5.38;;;16.30;97.50;;;;;;5084307;28;20032;-65
2022/08/26 04:20:17;;;;;;;8.43;5.18;;;16.30;97.60;;;;;;5068311;28;20063;-65
2022/08/26 04:22:44;;;;;;;7.30;5.20;;;16.40;97.70;;;;;;5080209;28;20028;-65
2022/08/26 04:25:11;;;;;;;7.18;5.35;;;16.40;97.60;;;;;;5077722;28;20115;-65
2022/08/26 04:27:37;;;;;;;8.10;5.57;;;16.40;97.50;;;;;;5091290;28;20031;-64
2022/08/26 04:30:03;;;;;;;6.85;5.18;;;16.40;97.60;;;;;;5078319;28;20031;-65
2022/08/26 04:32:29;;;;;;;6.93;5.40;;;16.40;97.60;;;;;;5079245;28;20082;-65
2022/08/26 04:34:55;;;;;;;7.82;5.30;;;16.40;97.60;;;;;;5079258;28;20029;-65
2022/08/26 04:37:21;;;;;;;10.88;5.65;;;16.40;97.60;;;;;;5081381;28;20115;-65
2022/08/26 04:39:51;;;;;;;13.10;5.88;;;16.30;97.40;;;;;;5075259;28;20067;-64
2022/08/26 04:42:17;;;;;;;6.72;5.43;;;16.30;97.30;;;;;;5077955;28;20029;-63
2022/08/26 04:44:42;;;;;;;9.10;5.57;;;16.20;97.30;;;;;;5092558;28;20035;-63
2022/08/26 04:47:08;;;;;;;7.53;5.60;;;16.10;97.30;;;;;;5088126;28;20016;-63
2022/08/26 04:49:34;;;;;;;9.60;5.93;;;16.00;97.10;;;;;;5084460;28;20044;-63
2022/08/26 04:51:59;;;;;;;6.78;5.28;;;15.90;97.00;;;;;;5077947;28;20017;-63
2022/08/26 04:54:25;;;;;;;6.43;5.20;;;16.00;97.10;;;;;;5087259;28;20056;-65
2022/08/26 04:56:51;;;;;;;8.02;5.80;;;16.10;97.10;;;;;;5096461;28;20077;-65
2022/08/26 04:59:17;;;;;;;7.45;5.43;;;16.20;97.20;;;;;;5085871;28;20425;-64
2022/08/26 05:01:48;;;;;;;8.40;5.63;;;16.30;97.40;;;;;;5078624;28;20025;-65
2022/08/26 05:04:15;;;;;;;7.72;5.47;;;16.30;97.60;;;;;;5082059;28;20048;-64
2022/08/26 05:06:40;;;;;;;7.50;5.68;;;16.40;97.70;;;;;;5089067;28;20355;-65
2022/08/26 05:09:06;;;;;;;9.15;5.53;;;16.40;97.80;;;;;;5077138;28;20082;-64
2022/08/26 05:11:32;;;;;;;7.32;5.32;;;16.50;97.80;;;;;;5078736;28;20418;-65
2022/08/26 05:13:57;;;;;;;7.85;4.90;;;16.50;97.70;;;;;;5081058;28;20040;-65
2022/08/26 05:16:23;;;;;;;6.22;4.78;;;16.50;97.60;;;;;;5083201;28;20107;-65
2022/08/26 05:18:49;;;;;;;8.98;5.30;;;16.50;97.60;;;;;;5081785;28;20100;-64
2022/08/26 05:21:17;;;;;;;8.52;5.07;;;16.50;97.60;;;;;;5076436;28;20032;-64
2022/08/26 05:23:47;;;;;;;9.32;5.70;;;16.50;97.40;;;;;;5079255;28;20132;-64
2022/08/26 05:26:13;;;;;;;7.25;5.30;;;16.50;97.40;;;;;;5074736;28;20304;-65
2022/08/26 05:28:39;;;;;;;9.02;6.00;;;16.50;97.40;;;;;;5077346;28;20024;-65
2022/08/26 05:31:13;;;;;;;8.30;5.40;;;16.50;97.40;;;;;;5078117;28;20095;-64
2022/08/26 05:33:38;;;;;;;8.07;5.35;;;16.50;97.50;;;;;;5091966;28;20020;-64
2022/08/26 05:36:14;;;;;;;8.70;5.60;;;16.50;97.40;;;;;;5077078;28;20363;-65
2022/08/26 05:38:40;;;;;;;7.75;5.40;;;16.50;97.50;;;;;;5085831;28;20031;-65
2022/08/26 05:41:27;;;;;;;7.00;5.60;;;16.50;97.40;;;;;;5072921;28;20618;-65
2022/08/26 05:43:57;;;;;;;8.60;5.18;;;16.50;97.20;;;;;;5081650;28;20025;-63
2022/08/26 05:46:23;;;;;;;9.25;5.22;;;16.50;97.20;;;;;;5076846;28;20029;-64
2022/08/26 05:48:50;;;;;;;10.02;5.30;;;16.60;97.10;;;;;;5088735;28;20039;-64
2022/08/26 05:51:17;;;;;;;9.13;5.35;;;16.60;97.10;;;;;;5090220;28;20028;-65
2022/08/26 05:53:43;;;;;;;8.30;5.13;;;16.60;97.00;;;;;;5079773;28;20032;-64
2022/08/26 05:56:10;;;;;;;7.10;5.22;;;16.60;97.00;;;;;;5075617;28;20031;-64
2022/08/26 05:58:38;;;;;;;8.02;5.43;;;16.60;96.90;;;;;;5092711;28;20026;-65
2022/08/26 06:01:26;;;;;;;8.23;5.32;;;16.60;97.10;;;;;;5082460;28;20063;-65
2022/08/26 06:03:55;;;;;;;6.15;4.88;;;16.60;97.10;;;;;;5071097;28;20049;-65
2022/08/26 06:06:32;;;;;;;8.02;5.20;;;16.70;97.50;;;;;;5076890;28;20441;-65
2022/08/26 06:09:00;;;;;;;7.25;5.40;;;16.80;97.80;;;;;;5087775;28;20024;-64
2022/08/26 06:11:27;;;;;;;7.38;4.38;;;17.00;97.80;;;;;;5083631;28;20482;-65
2022/08/26 06:13:54;;;;;;;11.27;5.00;;;17.20;97.90;;;;;;5075805;28;20090;-64
2022/08/26 06:16:22;;;;;;;6.60;4.60;;;17.50;97.90;;;;;;5082975;28;20028;-65
2022/08/26 06:18:50;;;;;;;6.40;5.00;;;17.70;97.80;;;;;;5077634;28;20051;-64
2022/08/26 06:21:23;;;;;;;8.23;4.80;;;18.00;97.80;;;;;;5077206;28;20059;-64
2022/08/26 06:26:36;;;;;;;5.82;4.35;;;18.60;97.10;;;;;;5089123;28;20077;-65
2022/08/26 06:29:04;;;;;;;5.70;4.05;;;18.80;96.90;;;;;;5085732;28;20429;-65
2022/08/26 06:31:33;;;;;;;6.82;4.78;;;19.00;96.70;;;;;;5082358;28;20028;-65
2022/08/26 06:33:59;;;;;;;7.65;4.38;;;19.20;96.00;;;;;;5094853;28;20028;-65
2022/08/26 06:36:27;;;;;;;8.38;4.53;;;19.30;95.90;;;;;;5094666;28;20111;-65
2022/08/26 06:38:57;;;;;;;9.93;4.20;;;19.50;95.60;;;;;;5078486;28;20104;-65
2022/08/26 06:41:23;;;;;;;6.55;4.43;;;19.60;95.50;;;;;;5074583;28;20025;-64
2022/08/26 06:43:49;;;;;;;6.25;3.80;;;19.70;95.20;;;;;;5077197;28;20112;-65
2022/08/26 06:46:17;;;;;;;6.93;4.00;;;19.90;94.70;;;;;;5078677;28;20448;-64
2022/08/26 06:48:44;;;;;;;6.97;4.10;;;20.00;94.20;;;;;;5092833;28;20028;-65
2022/08/26 06:51:13;;;;;;;6.70;4.00;;;20.30;93.70;;;;;;5082128;28;20086;-65
2022/08/26 06:53:41;;;;;;;7.57;3.92;;;20.50;92.40;;;;;;5089876;28;20443;-65
2022/08/26 06:56:09;;;;;;;6.53;4.05;;;20.80;91.40;;;;;;5088719;28;20051;-65
2022/08/26 06:58:37;;;;;;;5.93;4.00;;;21.00;90.90;;;;;;5075631;28;20017;-65
2022/08/26 07:01:28;;;;;;;6.10;4.38;;;21.20;90.20;;;;;;5075624;28;20025;-65
2022/08/26 07:03:56;;;;;;;8.07;4.20;;;21.30;89.70;;;;;;5073809;28;20036;-64
2022/08/26 07:06:24;;;;;;;5.60;3.80;;;21.40;89.80;;;;;;5077823;28;20036;-65
2022/08/26 07:08:51;;;;;;;5.47;4.20;;;21.40;89.70;;;;;;5074482;28;20409;-65
2022/08/26 07:11:18;;;;;;;7.25;4.45;;;21.50;88.90;;;;;;5077601;28;20039;-64
2022/08/26 07:13:49;;;;;;;7.38;4.22;;;21.70;88.40;;;;;;5082043;28;20035;-65
2022/08/26 07:16:16;;;;;;;6.78;4.10;;;21.80;88.20;;;;;;5085729;28;20016;-65
2022/08/26 07:18:43;;;;;;;5.45;4.30;;;21.90;87.80;;;;;;5081247;28;20028;-65
2022/08/26 07:21:11;;;;;;;6.45;4.47;;;22.00;86.70;;;;;;5076663;28;20356;-65
2022/08/26 07:23:39;;;;;;;6.07;4.53;;;22.10;87.10;;;;;;5090350;28;20119;-65
2022/08/26 07:26:15;;;;;;;7.93;4.50;;;22.30;86.80;;;;;;5087067;28;20096;-65
2022/08/26 07:28:41;;;;;;;7.88;4.15;;;22.40;86.20;;;;;;5076061;28;20044;-65
2022/08/26 07:31:09;;;;;;;5.57;3.80;;;22.40;85.30;;;;;;5076456;28;20096;-65
2022/08/26 07:33:37;;;;;;;8.50;4.20;;;22.50;84.70;;;;;;5080652;28;20413;-65
2022/08/26 07:36:03;;;;;;;7.47;4.00;;;22.60;84.90;;;;;;5076722;28;20516;-63
2022/08/26 07:38:29;;;;;;;7.53;4.10;;;22.80;84.10;;;;;;5075375;28;20020;-63
2022/08/26 07:40:54;;;;;;;5.57;3.58;;;23.00;82.90;;;;;;5075187;28;20286;-63
2022/08/26 07:43:21;;;;;;;6.88;3.88;;;23.00;82.10;;;;;;5084300;28;20033;-63
2022/08/26 07:45:48;;;;;;;5.65;3.60;;;23.20;82.30;;;;;;5075691;28;20035;-63
2022/08/26 07:48:14;;;;;;;6.72;3.70;;;23.40;81.50;;;;;;5079526;28;20035;-63
2022/08/26 07:50:41;;;;;;;6.25;3.67;;;23.40;81.80;;;;;;5082778;28;20295;-64
2022/08/26 07:53:07;;;;;;;6.20;3.90;;;23.50;81.30;;;;;;5079123;28;20025;-65
2022/08/26 07:55:33;;;;;;;6.72;3.53;;;23.80;81.00;;;;;;5074294;28;20035;-65
2022/08/26 07:57:59;;;;;;;7.05;3.60;;;24.20;81.70;;;;;;5087171;28;20032;-64
2022/08/26 08:00:25;;;;;;;5.07;3.60;;;24.80;80.20;;;;;;5089492;28;20047;-65
2022/08/26 08:02:51;;;;;;;5.65;3.20;;;25.90;76.80;;;;;;5067280;28;20078;-65
2022/08/26 08:05:19;;;;;;;8.15;3.88;;;26.90;74.00;;;;;;5073600;28;20044;-65
2022/08/26 08:07:45;;;;;;;8.63;3.50;;;27.90;71.20;;;;;;5076390;28;20070;-65
2022/08/26 08:10:19;;;;;;;5.63;3.50;;;28.50;69.80;;;;;;5074798;28;20052;-64
2022/08/26 08:12:46;;;;;;;5.80;3.20;;;28.70;70.00;;;;;;5083759;28;20036;-65
2022/08/26 08:15:12;;;;;;;8.40;3.25;;;28.90;70.40;;;;;;5083094;28;20039;-65
2022/08/26 08:17:41;;;;;;;5.88;3.00;;;29.00;70.70;;;;;;5081667;28;20069;-65
2022/08/26 08:20:07;;;;;;;4.95;3.00;;;29.50;69.30;;;;;;5067706;28;20027;-65
2022/08/26 08:22:34;;;;;;;6.50;3.20;;;29.90;67.30;;;;;;5096214;28;20039;-65
2022/08/26 08:25:00;;;;;;;5.55;2.97;;;30.40;66.90;;;;;;5094981;28;20359;-65
2022/08/26 08:27:26;;;;;;;5.35;3.08;;;30.60;66.10;;;;;;5091515;28;20337;-65
2022/08/26 08:29:55;;;;;;;5.05;3.20;;;30.70;66.00;;;;;;5078690;28;20051;-65
2022/08/26 08:32:22;;;;;;;6.32;3.20;;;30.70;65.60;;;;;;5097236;28;20028;-65
2022/08/26 08:34:47;;;;;;;6.00;3.00;;;30.60;65.70;;;;;;5095471;28;20306;-64
2022/08/26 08:37:13;;;;;;;4.90;3.00;;;30.70;66.20;;;;;;5087901;28;20058;-65
2022/08/26 08:39:39;;;;;;;5.38;3.17;;;31.00;65.60;;;;;;5094374;28;20031;-65
2022/08/26 08:42:23;;;;;;;8.02;3.10;;;30.10;67.00;;;;;;5080348;28;20387;-65
2022/08/26 08:44:51;;;;;;;6.05;3.22;;;30.00;67.40;;;;;;5080629;28;20112;-65
2022/08/26 08:47:28;;;;;;;6.38;2.85;;;30.20;66.80;;;;;;5065274;28;20039;-65
2022/08/26 08:49:57;;;;;;;7.80;3.60;;;31.00;65.40;;;;;;5079314;28;20024;-65
2022/08/26 08:52:34;;;;;;;5.40;3.20;;;30.90;65.20;;;;;;5080491;28;20028;-65
2022/08/26 08:55:01;;;;;;;5.22;3.10;;;31.10;65.80;;;;;;5076498;28;20330;-66
2022/08/26 08:57:40;;;;;;;6.25;3.00;;;31.80;63.40;;;;;;5081264;28;20036;-65
2022/08/26 09:00:15;;;;;;;6.28;3.15;;;31.60;63.50;;;;;;5079160;28;20424;-65
2022/08/26 09:03:09;;;;;;;4.90;3.25;;;31.60;63.10;;;;;;5075702;28;20051;-63
2022/08/26 09:05:42;;;;;;;6.35;3.00;;;31.40;63.80;;;;;;5065929;28;20039;-64
2022/08/26 09:08:13;;;;;;;5.85;2.97;;;31.10;63.40;;;;;;5084218;28;20471;-63
2022/08/26 09:10:49;;;;;;;5.63;3.08;;;30.80;64.70;;;;;;5082544;28;20032;-65
2022/08/26 09:13:17;;;;;;;6.63;2.83;;;31.20;64.00;;;;;;5075884;28;20123;-64
2022/08/26 09:16:01;;;;;;;6.35;2.80;;;31.80;63.10;;;;;;5073463;28;20029;-65
2022/08/26 09:18:47;;;;;;;7.22;2.83;;;32.80;60.70;;;;;;5075975;28;20047;-65
2022/08/26 09:21:15;;;;;;;8.23;3.15;;;32.80;60.90;;;;;;5076192;28;20029;-65
2022/08/26 09:23:42;;;;;;;6.03;2.75;;;32.80;60.00;;;;;;5073834;28;20035;-64
2022/08/26 09:26:24;;;;;;;7.75;3.38;;;33.20;60.10;;;;;;5074873;28;20027;-64
2022/08/26 09:29:02;;;;;;;7.40;3.40;;;33.10;60.40;;;;;;5062168;28;20029;-64
2022/08/26 09:31:33;;;;;;;5.03;3.15;;;32.90;60.90;;;;;;5060773;28;20021;-64
2022/08/26 09:34:34;;;;;;;6.57;3.20;;;33.30;60.70;;;;;;5077216;28;20349;-63
2022/08/26 09:37:00;;;;;;;5.85;3.33;;;33.20;59.60;;;;;;5037000;28;20128;-63
2022/08/26 09:39:33;;;;;;;5.22;3.28;;;33.30;59.90;;;;;;5068734;28;20111;-64
2022/08/26 09:42:12;;;;;;;8.93;3.53;;;32.80;60.80;;;;;;5076051;28;20035;-64
2022/08/26 09:44:58;;;;;;;6.00;3.63;;;33.20;59.90;;;;;;5076754;28;20072;-65
2022/08/26 09:47:38;;;;;;;7.10;3.45;;;32.70;60.00;;;;;;5077150;28;20021;-64
2022/08/26 09:50:25;;;;;;;7.20;4.60;;;32.60;60.10;;;;;;5076464;28;20035;-64
2022/08/26 09:53:05;;;;;;;7.30;2.88;;;33.20;58.50;;;;;;5075453;28;20017;-63
2022/08/26 09:55:30;;;;;;;6.05;3.15;;;33.80;57.70;;;;;;5075078;28;20056;-64
2022/08/26 09:57:56;;;;;;;6.30;3.50;;;34.30;55.60;;;;;;5075773;28;20064;-64
2022/08/26 10:00:30;;;;;;;5.28;3.13;;;33.80;55.90;;;;;;5076983;28;20054;-65
2022/08/26 10:02:58;;;;;;;7.40;3.40;;;33.60;56.80;;;;;;5076532;28;20077;-64
2022/08/26 10:05:56;;;;;;;6.72;3.30;;;33.90;56.00;;;;;;5076186;28;20036;-64
2022/08/26 10:08:27;;;;;;;5.45;3.13;;;33.60;56.00;;;;;;5047211;28;20037;-64
2022/08/26 10:10:55;;;;;;;7.93;3.00;;;33.90;56.00;;;;;;5071378;28;20016;-64
2022/08/26 10:13:34;;;;;;;5.78;3.53;;;34.20;55.30;;;;;;5075394;28;20035;-65
2022/08/26 10:16:12;;;;;;;5.22;3.10;;;33.90;56.10;;;;;;5076377;28;20009;-64
2022/08/26 10:19:04;;;;;;;7.53;2.90;;;33.20;56.40;;;;;;5073981;28;20047;-65
2022/08/26 10:21:55;;;;;;;8.25;3.40;;;33.40;56.30;;;;;;5074253;28;20046;-65
2022/08/26 10:24:43;;;;;;;7.82;2.80;;;33.90;54.30;;;;;;5073699;28;20099;-64
2022/08/26 10:27:42;;;;;;;6.55;3.20;;;34.20;53.10;;;;;;5074709;28;20031;-64
2022/08/26 10:30:17;;;;;;;6.03;3.05;;;33.50;54.90;;;;;;5069985;28;20029;-63
2022/08/26 10:32:50;;;;;;;6.93;3.10;;;33.80;54.40;;;;;;5068575;28;20035;-63
2022/08/26 10:35:18;;;;;;;9.63;3.10;;;34.10;53.40;;;;;;5063017;28;20090;-63
2022/08/26 10:37:55;;;;;;;5.78;3.00;;;34.20;53.00;;;;;;5070439;28;20460;-63
2022/08/26 10:40:28;;;;;;;5.28;2.72;;;34.20;54.10;;;;;;5070457;28;20093;-63
2022/08/26 10:43:08;;;;;;;4.82;2.60;;;34.40;51.90;;;;;;5072402;28;20114;-63
2022/08/26 10:45:46;;;;;;;4.43;2.63;;;35.10;51.60;;;;;;5070867;28;20029;-64
2022/08/26 10:48:26;;;;;;;4.78;2.75;;;35.40;50.10;;;;;;5070176;28;20028;-64
2022/08/26 10:50:55;;;;;;;4.60;2.83;;;34.30;52.40;;;;;;5072478;28;20020;-64
2022/08/26 10:53:54;;;;;;;5.03;2.88;;;34.20;52.30;;;;;;5071440;28;20022;-64
2022/08/26 10:56:51;;;;;;;6.68;2.95;;;34.40;52.30;;;;;;5069085;28;20033;-64
2022/08/26 10:59:38;;;;;;;5.20;2.63;;;35.00;50.50;;;;;;5073413;28;20020;-64
2022/08/26 11:02:07;;;;;;;5.70;2.70;;;35.20;50.40;;;;;;5085347;28;20493;-63
2022/08/26 11:04:41;;;;;;;5.32;2.85;;;34.60;50.30;;;;;;5076246;28;20049;-64
2022/08/26 11:07:39;;;;;;;6.70;3.15;;;33.40;51.00;;;;;;5072533;28;20039;-64
2022/08/26 11:10:12;;;;;;;4.60;2.88;;;33.50;51.70;;;;;;5054478;28;20017;-65
2022/08/26 11:12:38;;;;;;;;;;;34.20;51.30;;;;;;5067303;28;20091;-64
2022/08/26 11:15:19;;;;;;;5.03;2.70;;;35.10;51.90;;;;;;5075833;28;19909;-65
2022/08/26 11:17:50;;;;;;;5.90;3.00;;;35.40;51.30;;;;;;5075548;28;20028;-65
2022/08/26 11:20:22;;;;;;;4.10;2.33;;;35.90;49.60;;;;;;5075686;28;20421;-64
2022/08/26 11:22:53;;;;;;;5.47;2.50;;;36.40;48.60;;;;;;5075772;28;20107;-64
2022/08/26 11:25:20;;;;;;;6.43;2.60;;;36.70;47.00;;;;;;5074363;28;20021;-65
2022/08/26 11:27:49;;;;;;;6.15;3.03;;;36.40;47.80;;;;;;5074460;28;20351;-65
2022/08/26 11:30:15;;;;;;;7.38;2.88;;;35.90;48.50;;;;;;5075777;28;20356;-64
2022/08/26 11:32:40;;;;;;;6.63;2.92;;;36.00;49.20;;;;;;5075707;28;20062;-64
2022/08/26 11:35:10;;;;;;;5.60;3.10;;;35.60;51.60;;;;;;5075725;28;20029;-64
2022/08/26 11:37:50;;;;;;;5.15;3.00;;;34.70;53.10;;;;;;5075551;28;20029;-64
2022/08/26 11:40:37;;;;;;;6.28;3.33;;;33.40;52.30;;;;;;5074449;28;20103;-65
2022/08/26 11:43:11;;;;;;;4.80;3.10;;;32.80;56.30;;;;;;5074834;28;20029;-64
2022/08/26 11:45:40;;;;;;;5.57;3.28;;;33.40;54.00;;;;;;5075404;28;20416;-64
2022/08/26 11:48:18;;;;;;;6.20;3.30;;;33.60;53.20;;;;;;5079070;28;20035;-64
2022/08/26 11:51:08;;;;;;;6.93;3.30;;;33.80;53.30;;;;;;5079365;28;20025;-65
2022/08/26 11:53:36;;;;;;;9.00;3.90;;;33.90;53.50;;;;;;5078207;28;20329;-64
2022/08/26 11:56:25;;;;;;;8.55;3.47;;;33.70;52.60;;;;;;5078019;28;20056;-64
2022/08/26 11:58:55;;;;;;;7.60;3.67;;;33.30;54.80;;;;;;5078892;28;20050;-64
2022/08/26 12:01:29;;;;;;;5.43;3.25;;;33.90;53.70;;;;;;5078892;28;20029;-64
2022/08/26 12:03:56;;;;;;;8.45;3.38;;;33.90;52.20;;;;;;5078507;28;20429;-65
2022/08/26 12:06:29;;;;;;;7.32;3.53;;;33.20;53.10;;;;;;5079056;28;20313;-64
2022/08/26 12:08:58;;;;;;;6.63;3.33;;;32.80;52.90;;;;;;5076823;28;20321;-64
2022/08/26 12:11:32;;;;;;;8.35;3.55;;;32.40;53.30;;;;;;5077751;28;20028;-64
2022/08/26 12:14:02;;;;;;;5.75;3.30;;;32.40;53.90;;;;;;5078846;28;20020;-64
2022/08/26 12:16:37;;;;;;;8.00;3.50;;;32.50;53.10;;;;;;5078955;28;20040;-65
2022/08/26 12:19:29;;;;;;;8.30;3.60;;;32.90;52.90;;;;;;5078780;28;20314;-65
2022/08/26 12:22:02;;;;;;;6.80;2.97;;;32.90;55.00;;;;;;5078853;28;20048;-64
2022/08/26 12:24:28;;;;;;;7.90;3.70;;;32.60;53.70;;;;;;5076482;28;20512;-65
2022/08/26 12:27:33;;;;;;;6.57;3.40;;;32.70;53.80;;;;;;5077440;28;20107;-64
2022/08/26 12:30:18;;;;;;;5.90;3.60;;;33.30;52.90;;;;;;5067041;28;20032;-65
2022/08/26 12:32:47;;;;;;;10.07;3.90;;;33.80;53.80;;;;;;5077698;28;20380;-64
2022/08/26 12:35:16;;;;;;;8.38;3.70;;;33.30;53.00;;;;;;5078428;28;20063;-64
2022/08/26 12:37:47;;;;;;;6.68;3.58;;;32.10;53.60;;;;;;5078573;28;20299;-64
2022/08/26 12:40:42;;;;;;;9.25;3.67;;;31.40;54.60;;;;;;5077756;28;20412;-64
2022/08/26 12:43:10;;;;;;;8.48;3.67;;;30.80;55.70;;;;;;5077343;28;20032;-65
2022/08/26 12:45:43;;;;;;;9.05;3.95;;;30.50;56.50;;;;;;5078232;28;20048;-65
2022/08/26 12:48:20;;;;;;;7.65;3.92;;;30.30;57.40;;;;;;5078448;28;20429;-65
2022/08/26 12:50:51;;;;;;;8.80;4.55;;;30.10;58.10;;;;;;5078148;28;20333;-64
2022/08/26 12:53:23;;;;;;;10.70;4.43;;;29.80;59.00;;;;;;5077037;28;20029;-64
2022/08/26 12:56:02;;;;;;;10.80;5.10;;;29.90;62.30;;;;;;5077902;28;20314;-65
2022/08/26 12:58:38;;;;;;;13.88;5.35;;;29.90;62.90;;;;;;5076915;28;20032;-65
2022/08/26 13:01:03;;;;;;;22.75;5.72;;;30.20;62.80;;;;;;5062840;28;20425;-65
2022/08/26 13:03:32;;;;;;;11.95;4.97;;;30.80;62.00;;;;;;5078006;28;20066;-64
2022/08/26 13:06:26;;;;;;;8.88;5.20;;;31.30;59.60;;;;;;5077865;28;20104;-65